LIM260 LMML-LICC
Flight info
| Callsign | LIM260 |
|---|---|
| Flight time | 0h 33m |
| Altitude | 12000 |
| Route | GZO N982 DIRKA/N0282F140 N982 NELDA |
| Aircraft | TBM8/L-SDFGRWY/S |
Departure
| Time | 2026-04-30 17:43 |
|---|---|
| Airport | Malta International Airport (LMML) |
Arrival
| Time | 2026-04-30 18:16 |
|---|---|
| Airport | Catania-Fontanarossa Airport (LICC) |
| Time | Latitude | Longitude | Altitude | Speed | Heading |
|---|---|---|---|---|---|
| 2026-04-30 17:39 | 35.85350 | 14.48255 | 267 ft | 11 kts | 138° |
| 2026-04-30 17:41 | 35.84732 | 14.49024 | 253 ft | 5 kts | 227° |
| 2026-04-30 17:42 | 35.84829 | 14.48882 | 253 ft | 49 kts | 315° |
| 2026-04-30 17:42 | 35.86567 | 14.46754 | 673 ft | 159 kts | 317° |
| 2026-04-30 17:43 | 35.88247 | 14.44689 | 1371 ft | 181 kts | 316° |
| 2026-04-30 17:44 | 35.90949 | 14.41153 | 2433 ft | 195 kts | 301° |
| 2026-04-30 17:44 | 35.93459 | 14.37422 | 3469 ft | 194 kts | 340° |
| 2026-04-30 17:46 | 35.98528 | 14.31944 | 5185 ft | 196 kts | 304° |
| 2026-04-30 17:47 | 36.01200 | 14.26114 | 6559 ft | 196 kts | 298° |
| 2026-04-30 17:48 | 36.04738 | 14.21137 | 7688 ft | 208 kts | 344° |
| 2026-04-30 17:48 | 36.09131 | 14.21742 | 8438 ft | 215 kts | 7° |
| 2026-04-30 17:49 | 36.15055 | 14.23077 | 9459 ft | 217 kts | 6° |
| 2026-04-30 17:50 | 36.21027 | 14.24426 | 10446 ft | 219 kts | 6° |
| 2026-04-30 17:51 | 36.25504 | 14.25438 | 11165 ft | 219 kts | 5° |
| 2026-04-30 17:52 | 36.30020 | 14.26461 | 11905 ft | 220 kts | 5° |
| 2026-04-30 17:53 | 36.38092 | 14.28291 | 12015 ft | 245 kts | 5° |
| 2026-04-30 17:54 | 36.44853 | 14.29828 | 12017 ft | 248 kts | 5° |
| 2026-04-30 17:55 | 36.51644 | 14.31373 | 12019 ft | 248 kts | 5° |
| 2026-04-30 17:56 | 36.58438 | 14.32918 | 12023 ft | 248 kts | 5° |
| 2026-04-30 17:57 | 36.62957 | 14.33947 | 12028 ft | 248 kts | 5° |
| 2026-04-30 17:58 | 36.68045 | 14.35107 | 12030 ft | 248 kts | 5° |
| 2026-04-30 17:59 | 36.74821 | 14.36655 | 12035 ft | 248 kts | 5° |
| 2026-04-30 18:00 | 36.81597 | 14.38205 | 12034 ft | 247 kts | 5° |
| 2026-04-30 18:00 | 36.86619 | 14.39679 | 12041 ft | 255 kts | 23° |
| 2026-04-30 18:01 | 36.89510 | 14.42328 | 12006 ft | 259 kts | 31° |
| 2026-04-30 18:02 | 36.93820 | 14.46383 | 12001 ft | 258 kts | 31° |
| 2026-04-30 18:02 | 36.98317 | 14.50631 | 10719 ft | 270 kts | 32° |
| 2026-04-30 18:03 | 37.03186 | 14.53071 | 10005 ft | 244 kts | 4° |
| 2026-04-30 18:04 | 37.08097 | 14.54617 | 10003 ft | 242 kts | 10° |
| 2026-04-30 18:05 | 37.14618 | 14.56723 | 10015 ft | 242 kts | 10° |
| 2026-04-30 18:06 | 37.21124 | 14.58842 | 10016 ft | 241 kts | 10° |
| 2026-04-30 18:07 | 37.28034 | 14.61096 | 8337 ft | 262 kts | 12° |
| 2026-04-30 18:08 | 37.33210 | 14.62786 | 7010 ft | 252 kts | 12° |
| 2026-04-30 18:09 | 37.39518 | 14.64847 | 5224 ft | 210 kts | 13° |
| 2026-04-30 18:10 | 37.43661 | 14.69953 | 4106 ft | 231 kts | 85° |
| 2026-04-30 18:11 | 37.44250 | 14.77867 | 4106 ft | 226 kts | 83° |
| 2026-04-30 18:11 | 37.44770 | 14.83946 | 3388 ft | 238 kts | 83° |
| 2026-04-30 18:12 | 37.45296 | 14.90083 | 2472 ft | 233 kts | 84° |
| 2026-04-30 18:13 | 37.45606 | 14.93890 | 1879 ft | 183 kts | 83° |
| 2026-04-30 18:13 | 37.45887 | 14.97312 | 1311 ft | 145 kts | 83° |
| 2026-04-30 18:14 | 37.46143 | 15.00255 | 833 ft | 144 kts | 82° |
| 2026-04-30 18:15 | 37.46394 | 15.03250 | 357 ft | 107 kts | 82° |
| 2026-04-30 18:15 | 37.46616 | 15.05897 | 30 ft | 75 kts | 84° |
| 2026-04-30 18:16 | 37.46678 | 15.06656 | 30 ft | 30 kts | 83° |
| 2026-04-30 18:16 | 37.46708 | 15.06905 | 31 ft | 8 kts | 52° |
| 2026-04-30 18:17 | 37.46752 | 15.06923 | 30 ft | 8 kts | 348° |
| 2026-04-30 18:17 | 37.46820 | 15.06888 | 27 ft | 13 kts | 335° |
| 2026-04-30 18:17 | 37.46850 | 15.06715 | 27 ft | 10 kts | 264° |
| 2026-04-30 18:18 | 37.46842 | 15.06631 | 27 ft | 11 kts | 262° |
| 2026-04-30 18:18 | 37.46829 | 15.06472 | 26 ft | 24 kts | 264° |
| 2026-04-30 18:18 | 37.46812 | 15.06278 | 27 ft | 21 kts | 263° |
| 2026-04-30 18:18 | 37.46797 | 15.06101 | 27 ft | 19 kts | 265° |
| 2026-04-30 18:19 | 37.46784 | 15.05944 | 27 ft | 17 kts | 263° |
| 2026-04-30 18:19 | 37.46773 | 15.05807 | 27 ft | 15 kts | 266° |
| 2026-04-30 18:19 | 37.46763 | 15.05690 | 27 ft | 12 kts | 264° |
| 2026-04-30 18:19 | 37.46757 | 15.05591 | 26 ft | 11 kts | 266° |
| 2026-04-30 18:20 | 37.46752 | 15.05507 | 26 ft | 9 kts | 277° |
| 2026-04-30 18:20 | 37.46794 | 15.05493 | 29 ft | 7 kts | 26° |
| 2026-04-30 18:20 | 37.46846 | 15.05542 | 26 ft | 10 kts | 45° |
| 2026-04-30 18:20 | 37.46893 | 15.05593 | 26 ft | 8 kts | 38° |
| 2026-04-30 18:21 | 37.46926 | 15.05632 | 26 ft | 5 kts | 46° |
| 2026-04-30 18:21 | 37.46945 | 15.05654 | 26 ft | 2 kts | 43° |
| 2026-04-30 18:21 | 37.46956 | 15.05666 | 26 ft | 10 kts | 40° |
| 2026-04-30 18:21 | 37.47014 | 15.05733 | 26 ft | 11 kts | 43° |
| 2026-04-30 18:22 | 37.47018 | 15.05800 | 27 ft | 5 kts | 123° |
| 2026-04-30 18:22 | 37.46986 | 15.05817 | 26 ft | 5 kts | 158° |
| 2026-04-30 18:22 | 37.46980 | 15.05820 | 29 ft | 0 kts | 158° |